createdAt,value
2023-02-28T00:00:51.634Z,58
2023-02-28T00:02:08.631Z,58
2023-02-28T00:03:25.736Z,58
2023-02-28T00:04:42.608Z,58.1
2023-02-28T00:05:59.593Z,58
2023-02-28T00:07:16.600Z,57.9
2023-02-28T00:08:33.628Z,57.7
2023-02-28T00:09:50.633Z,57.8
2023-02-28T00:11:07.703Z,58
2023-02-28T00:12:24.613Z,58.5
2023-02-28T00:13:41.609Z,59.3
2023-02-28T00:14:58.608Z,60
2023-02-28T00:16:15.714Z,60.6
2023-02-28T00:17:32.619Z,61.2
2023-02-28T00:18:49.659Z,61.7
2023-02-28T00:20:06.668Z,62.1
2023-02-28T00:21:23.730Z,61.9
2023-02-28T00:22:40.646Z,61.6
2023-02-28T00:23:57.654Z,61.2
2023-02-28T00:25:14.625Z,60.9
2023-02-28T00:26:31.680Z,60.3
2023-02-28T00:27:48.660Z,60.1
2023-02-28T00:29:05.650Z,59.8
2023-02-28T00:30:22.607Z,59.6
2023-02-28T00:31:39.694Z,59.7
2023-02-28T00:32:56.624Z,59.6
2023-02-28T00:34:13.623Z,59.4
2023-02-28T00:35:30.624Z,59.2
2023-02-28T00:36:47.744Z,59
2023-02-28T00:38:04.636Z,58.7
2023-02-28T00:39:21.660Z,58.7
2023-02-28T00:40:38.654Z,58.6
2023-02-28T00:41:55.722Z,58.7
2023-02-28T00:43:12.639Z,58.7
2023-02-28T00:44:29.706Z,58.6
2023-02-28T00:45:46.731Z,58.6
2023-02-28T00:47:03.683Z,58.5
2023-02-28T00:48:20.638Z,58.3
2023-02-28T00:49:37.655Z,58.3
2023-02-28T00:50:54.670Z,58.3
2023-02-28T00:52:11.659Z,58.1
2023-02-28T00:53:28.699Z,58
2023-02-28T00:54:45.682Z,57.9
2023-02-28T00:56:02.707Z,57.9
2023-02-28T00:57:20.648Z,57.8
2023-02-28T00:58:37.683Z,57.8
2023-02-28T00:59:54.645Z,57.8
2023-02-28T01:01:11.720Z,58.2
2023-02-28T01:02:28.685Z,58.3
2023-02-28T01:03:45.702Z,58.2
2023-02-28T01:05:02.660Z,58.5
2023-02-28T01:06:19.685Z,59
2023-02-28T01:07:36.722Z,59.8
2023-02-28T01:08:53.659Z,60.6
2023-02-28T01:10:10.771Z,61.4
2023-02-28T01:11:28.017Z,61.8
2023-02-28T01:12:44.792Z,61.6
2023-02-28T01:14:01.702Z,61.1
2023-02-28T01:15:18.673Z,61
2023-02-28T01:16:35.678Z,60.7
2023-02-28T01:17:52.773Z,60.5
2023-02-28T01:19:09.712Z,60.2
2023-02-28T01:20:26.695Z,60
2023-02-28T01:21:43.824Z,59.7
2023-02-28T01:23:00.745Z,59.8
2023-02-28T01:24:17.695Z,59.6
2023-02-28T01:25:34.779Z,59.4
2023-02-28T01:26:51.701Z,59.2
2023-02-28T01:28:08.701Z,58.8
2023-02-28T01:29:25.683Z,58.6
2023-02-28T01:30:42.918Z,58.9
2023-02-28T01:31:59.799Z,59.1
2023-02-28T01:33:16.708Z,59
2023-02-28T01:34:33.750Z,59.1
2023-02-28T01:35:50.716Z,59.4
2023-02-28T01:37:07.751Z,59.6
2023-02-28T01:38:24.771Z,59.8
2023-02-28T01:39:41.765Z,59.8
2023-02-28T01:40:58.720Z,59.9
2023-02-28T01:42:15.768Z,59.5
2023-02-28T01:43:32.710Z,59.3
2023-02-28T01:44:49.710Z,59.1
2023-02-28T01:46:08.995Z,58.7
2023-02-28T01:47:25.740Z,58.8
2023-02-28T01:48:42.740Z,58.9
2023-02-28T01:49:59.731Z,59.2
2023-02-28T01:51:16.730Z,59.6
2023-02-28T01:52:33.761Z,60.1
2023-02-28T01:53:50.724Z,60.5
2023-02-28T01:55:07.768Z,60.5
2023-02-28T01:56:24.763Z,60
2023-02-28T01:57:41.742Z,59.8
2023-02-28T01:58:58.732Z,59.9
2023-02-28T02:00:15.766Z,59.7
2023-02-28T02:01:32.986Z,59.3
2023-02-28T02:02:49.812Z,59.1
2023-02-28T02:04:06.766Z,58.8
2023-02-28T02:05:23.757Z,58.9
2023-02-28T02:06:40.741Z,59
2023-02-28T02:07:57.842Z,59
2023-02-28T02:09:14.767Z,58.9
2023-02-28T02:10:31.744Z,59
2023-02-28T02:11:48.854Z,58.8
2023-02-28T02:13:05.768Z,58.5
2023-02-28T02:14:22.780Z,58.5
2023-02-28T02:15:39.823Z,58.4
2023-02-28T02:16:56.788Z,58.7
2023-02-28T02:18:13.798Z,59.3
2023-02-28T02:19:30.783Z,60
2023-02-28T02:20:47.754Z,60.8
2023-02-28T02:22:04.773Z,61.6
2023-02-28T02:23:21.817Z,62.5
2023-02-28T02:24:38.774Z,63.2
2023-02-28T02:25:55.789Z,63.6
2023-02-28T02:27:12.817Z,63.8
2023-02-28T02:28:30.608Z,63.2
2023-02-28T02:29:47.757Z,62.9
2023-02-28T02:31:04.883Z,62.5
2023-02-28T02:32:21.851Z,62.1
2023-02-28T02:33:38.779Z,61.5
2023-02-28T02:34:55.774Z,61.1
2023-02-28T02:36:12.788Z,60.8
2023-02-28T02:37:29.796Z,60.7
2023-02-28T02:38:46.790Z,60.5
2023-02-28T02:40:03.785Z,60.3
2023-02-28T02:41:20.816Z,60.1
2023-02-28T02:42:37.819Z,60.2
2023-02-28T02:43:54.797Z,60.2
2023-02-28T02:45:11.833Z,60
2023-02-28T02:46:28.809Z,59.9
2023-02-28T02:47:45.829Z,59.7
2023-02-28T02:49:02.826Z,59.8
2023-02-28T02:50:19.841Z,59.9
2023-02-28T02:51:36.811Z,59.8
2023-02-28T02:52:53.810Z,59.7
2023-02-28T02:54:10.789Z,59.7
2023-02-28T02:55:27.886Z,59.6
2023-02-28T02:56:44.839Z,59.7
2023-02-28T02:58:01.852Z,59.8
2023-02-28T02:59:18.803Z,59.8
2023-02-28T03:00:35.895Z,59.6
2023-02-28T03:01:52.859Z,59.5
2023-02-28T03:03:09.805Z,59.6
2023-02-28T03:04:26.851Z,59.7
2023-02-28T03:05:43.846Z,59.6
2023-02-28T03:07:00.852Z,59.7
2023-02-28T03:08:17.821Z,59.7
2023-02-28T03:09:34.860Z,59.6
2023-02-28T03:10:51.834Z,59.4
2023-02-28T03:12:08.857Z,59.1
2023-02-28T03:13:25.874Z,59.1
2023-02-28T03:14:42.857Z,59
2023-02-28T03:15:59.970Z,58.9
2023-02-28T03:17:16.854Z,58.9
2023-02-28T03:18:33.992Z,59.4
2023-02-28T03:19:50.902Z,60.1
2023-02-28T03:21:07.848Z,60.6
2023-02-28T03:22:24.833Z,61.4
2023-02-28T03:23:41.844Z,62.2
2023-02-28T03:24:59.029Z,63
2023-02-28T03:26:15.846Z,63.4
2023-02-28T03:27:32.852Z,63.5
2023-02-28T03:28:49.901Z,63.1
2023-02-28T03:30:06.951Z,62.5
2023-02-28T03:31:23.860Z,61.6
2023-02-28T03:32:41.091Z,61.6
2023-02-28T03:33:57.867Z,61.5
2023-02-28T03:35:14.873Z,61.3
2023-02-28T03:36:31.878Z,61.2
2023-02-28T03:37:48.917Z,61.3
2023-02-28T03:39:05.849Z,61.3
2023-02-28T03:40:22.878Z,61.5
2023-02-28T03:41:39.883Z,61.6
2023-02-28T03:42:56.939Z,61.6
2023-02-28T03:44:13.882Z,61.6
2023-02-28T03:45:30.953Z,61.5
2023-02-28T03:46:47.898Z,61.3
2023-02-28T03:48:04.885Z,61
2023-02-28T03:49:21.880Z,60.9
2023-02-28T03:50:38.939Z,60.8
2023-02-28T03:51:55.886Z,60.5
2023-02-28T03:53:12.952Z,60.6
2023-02-28T03:54:29.905Z,60.7
2023-02-28T03:55:47.005Z,60.8
2023-02-28T03:57:03.891Z,61
2023-02-28T03:58:20.925Z,61
2023-02-28T03:59:37.909Z,61
2023-02-28T04:00:54.866Z,60.7
2023-02-28T04:02:11.874Z,60.4
2023-02-28T04:03:28.920Z,60.2
2023-02-28T04:04:46.084Z,60.4
2023-02-28T04:06:02.908Z,60.9
2023-02-28T04:07:19.895Z,61.3
2023-02-28T04:08:36.886Z,61.3
2023-02-28T04:09:53.916Z,61.1
2023-02-28T04:11:10.892Z,60.9
2023-02-28T04:12:27.903Z,60.6
2023-02-28T04:13:47.198Z,60.5
2023-02-28T04:15:02.003Z,60.8
2023-02-28T04:16:32.384Z,60.8
2023-02-28T04:17:35.986Z,61
2023-02-28T04:18:52.906Z,61.2
2023-02-28T04:20:09.927Z,61.5
2023-02-28T04:21:27.977Z,62.2
2023-02-28T04:22:43.968Z,62.8
2023-02-28T04:24:00.903Z,62.9
2023-02-28T04:25:17.922Z,63
2023-02-28T04:26:34.927Z,63.1
2023-02-28T04:27:51.984Z,63
2023-02-28T04:29:08.963Z,62.8
2023-02-28T04:30:25.967Z,62.7
2023-02-28T04:31:42.977Z,62.3
2023-02-28T04:32:59.955Z,62.3
2023-02-28T04:34:16.978Z,62.2
2023-02-28T04:35:33.967Z,62
2023-02-28T04:36:56.902Z,61.6
2023-02-28T04:38:07.934Z,61.2
2023-02-28T04:39:24.950Z,60.5
2023-02-28T04:40:41.934Z,59.9
2023-02-28T04:41:58.942Z,59.6
2023-02-28T04:43:15.970Z,59.2
2023-02-28T04:44:32.958Z,59.3
2023-02-28T04:45:50.021Z,59.1
2023-02-28T04:47:06.962Z,58.9
2023-02-28T04:48:23.949Z,58.5
2023-02-28T04:49:40.985Z,58.9
2023-02-28T04:50:57.962Z,59.3
2023-02-28T04:52:14.979Z,59.4
2023-02-28T04:53:31.940Z,59.3
2023-02-28T04:54:48.993Z,59.2
2023-02-28T04:56:05.982Z,59.1
2023-02-28T04:57:22.967Z,58.9
2023-02-28T04:58:39.970Z,58.7
2023-02-28T04:59:56.997Z,58.9
2023-02-28T05:01:14.012Z,58.5
2023-02-28T05:02:31.020Z,58
2023-02-28T05:03:47.951Z,57.8
2023-02-28T05:05:05.037Z,57.6
2023-02-28T05:06:22.025Z,57.5
2023-02-28T05:07:38.957Z,57.6
2023-02-28T05:08:56.030Z,58.2
2023-02-28T05:10:12.971Z,58.8
2023-02-28T05:11:30.421Z,59.1
2023-02-28T05:12:46.970Z,59.3
2023-02-28T05:14:04.003Z,59.4
2023-02-28T05:15:21.002Z,59.7
2023-02-28T05:16:38.063Z,60
2023-02-28T05:17:54.982Z,60.3
2023-02-28T05:19:12.023Z,61.1
2023-02-28T05:20:29.000Z,61.7
2023-02-28T05:21:45.977Z,62.2
2023-02-28T05:23:02.987Z,62.4
2023-02-28T05:24:19.967Z,62.6
2023-02-28T05:25:37.053Z,62.7
2023-02-28T05:26:54.087Z,63
2023-02-28T05:28:10.988Z,63.2
2023-02-28T05:29:28.010Z,63.5
2023-02-28T05:30:45.084Z,63.8
2023-02-28T05:32:02.128Z,63.6
2023-02-28T05:33:18.981Z,63.2
2023-02-28T05:34:36.018Z,62.9
2023-02-28T05:35:53.085Z,62.5
2023-02-28T05:37:10.003Z,62.2
2023-02-28T05:38:27.036Z,62
2023-02-28T05:39:44.017Z,61.6
2023-02-28T05:41:01.030Z,61.3
2023-02-28T05:42:18.108Z,60.8
2023-02-28T05:43:35.070Z,60.1
2023-02-28T05:44:52.012Z,59.5
2023-02-28T05:46:09.060Z,59.4
2023-02-28T05:47:26.030Z,59.3
2023-02-28T05:48:43.121Z,59.1
2023-02-28T05:50:00.068Z,58.8
2023-02-28T05:51:17.062Z,58.6
2023-02-28T05:52:34.056Z,58.5
2023-02-28T05:53:51.062Z,58.2
2023-02-28T05:55:08.037Z,58
2023-02-28T05:56:25.020Z,57.5
2023-02-28T05:57:42.057Z,57.3
2023-02-28T05:58:59.055Z,57.3
2023-02-28T06:00:16.052Z,57.2
2023-02-28T06:01:33.043Z,57.3
2023-02-28T06:02:50.126Z,57.8
2023-02-28T06:04:07.050Z,57.9
2023-02-28T06:05:24.042Z,57.8
2023-02-28T06:06:41.078Z,57.7
2023-02-28T06:07:58.074Z,57
2023-02-28T06:09:15.057Z,56.3
2023-02-28T06:10:32.066Z,55.2
2023-02-28T06:11:49.076Z,54
2023-02-28T06:13:06.071Z,52.8
2023-02-28T06:14:23.073Z,51.8
2023-02-28T06:15:40.077Z,50.9
2023-02-28T06:16:58.922Z,50.1
2023-02-28T06:18:14.076Z,49.4
2023-02-28T06:19:31.196Z,48.6
2023-02-28T06:20:48.097Z,47.4
2023-02-28T06:22:05.062Z,46.1
2023-02-28T06:23:22.067Z,44.9
2023-02-28T06:24:39.092Z,44.8
2023-02-28T06:25:56.061Z,45.1
2023-02-28T06:27:13.094Z,45.7
2023-02-28T06:28:30.078Z,46.4
2023-02-28T06:29:47.089Z,47.2
2023-02-28T06:31:04.133Z,47.9
2023-02-28T06:32:21.194Z,48.3
2023-02-28T06:33:38.125Z,48.5
2023-02-28T06:34:55.094Z,48.5
2023-02-28T06:36:12.091Z,48.1
2023-02-28T06:37:29.127Z,47.8
2023-02-28T06:38:46.103Z,47.5
2023-02-28T06:40:03.147Z,47.1
2023-02-28T06:41:20.147Z,47.2
2023-02-28T06:42:37.163Z,46.7
2023-02-28T06:43:54.165Z,45.8
2023-02-28T06:45:11.110Z,44.6
2023-02-28T06:46:28.445Z,43.5
2023-02-28T06:47:45.134Z,41.7
2023-02-28T06:49:02.213Z,40.8
2023-02-28T06:50:19.108Z,39.9
2023-02-28T06:51:36.130Z,39.3
2023-02-28T06:52:53.149Z,39.4
2023-02-28T06:54:10.142Z,39.2
2023-02-28T06:55:28.038Z,39.3
2023-02-28T06:56:44.171Z,38.5
2023-02-28T06:58:01.107Z,37.3
2023-02-28T06:59:18.134Z,36.8
2023-02-28T07:00:35.138Z,35.8
2023-02-28T07:01:52.185Z,35.1
2023-02-28T07:03:09.134Z,34.5
2023-02-28T07:04:26.200Z,32.9
2023-02-28T07:05:43.108Z,31.8
2023-02-28T07:07:00.151Z,31.4
2023-02-28T07:08:17.172Z,30.4
2023-02-28T07:09:34.155Z,30.1
2023-02-28T07:10:51.141Z,29.1
2023-02-28T07:12:08.162Z,28.2
2023-02-28T07:13:25.131Z,27.8
2023-02-28T07:14:42.144Z,27.8
2023-02-28T07:15:59.216Z,27.8
2023-02-28T07:17:16.173Z,28.4
2023-02-28T07:18:33.180Z,29.3
2023-02-28T07:19:50.169Z,29.8
2023-02-28T07:21:07.154Z,29.6
2023-02-28T07:22:24.136Z,29.5
2023-02-28T07:23:41.174Z,29.5
2023-02-28T07:24:58.181Z,29.3
2023-02-28T07:26:15.175Z,28.6
2023-02-28T07:27:32.145Z,28.4
2023-02-28T07:28:49.186Z,28.5
2023-02-28T07:30:06.227Z,28.7
2023-02-28T07:31:23.401Z,28.9
2023-02-28T07:32:40.150Z,29.5
2023-02-28T07:33:57.192Z,29.4
2023-02-28T07:35:14.178Z,29.1
2023-02-28T07:36:31.191Z,30
2023-02-28T07:37:48.158Z,29.8
2023-02-28T07:39:05.151Z,30.3
2023-02-28T07:40:22.168Z,30.6
2023-02-28T07:41:39.199Z,31.2
2023-02-28T07:42:56.180Z,30.9
2023-02-28T07:44:13.197Z,30.6
2023-02-28T07:45:30.197Z,31
2023-02-28T07:46:47.288Z,31.5
2023-02-28T07:48:04.185Z,31.9
2023-02-28T07:49:21.212Z,32.3
2023-02-28T07:50:38.238Z,32.3
2023-02-28T07:51:55.288Z,31.3
2023-02-28T07:53:12.268Z,30.5
2023-02-28T07:54:29.225Z,29.8
2023-02-28T07:55:46.207Z,28.6
2023-02-28T07:57:03.236Z,28.5
2023-02-28T07:58:20.219Z,28.9
2023-02-28T07:59:37.237Z,29.1
2023-02-28T08:00:54.329Z,29.5
2023-02-28T08:02:11.276Z,28.9
2023-02-28T08:03:28.208Z,29.2
2023-02-28T08:04:45.316Z,28.9
2023-02-28T08:06:02.271Z,28.9
2023-02-28T08:07:19.277Z,28.7
2023-02-28T08:08:36.220Z,28.3
2023-02-28T08:09:53.226Z,28
2023-02-28T08:11:10.225Z,27.7
2023-02-28T08:12:27.277Z,28
2023-02-28T08:13:44.204Z,28.2
2023-02-28T08:15:01.272Z,28.4
2023-02-28T08:16:18.555Z,27.5
2023-02-28T08:17:35.559Z,26.7
2023-02-28T08:18:52.227Z,26.1
2023-02-28T08:20:09.259Z,25.8
2023-02-28T08:21:26.295Z,26.3
2023-02-28T08:22:45.809Z,26.5
2023-02-28T08:24:00.250Z,26.4
2023-02-28T08:25:17.306Z,26.3
2023-02-28T08:26:34.273Z,25.8
2023-02-28T08:27:51.281Z,25.5
2023-02-28T08:29:08.297Z,26
2023-02-28T08:30:25.386Z,26
2023-02-28T08:31:42.268Z,26.4
2023-02-28T08:32:59.299Z,26.8
2023-02-28T08:34:16.322Z,27.6
2023-02-28T08:35:33.338Z,27.2
2023-02-28T08:36:50.273Z,27
2023-02-28T08:38:07.360Z,27.6
2023-02-28T08:39:25.664Z,28.4
2023-02-28T08:40:42.286Z,28.3
2023-02-28T08:42:07.070Z,28.4
2023-02-28T08:43:16.372Z,28
2023-02-28T08:44:33.312Z,27.8
2023-02-28T08:45:50.342Z,28.3
2023-02-28T08:47:07.283Z,28.3
2023-02-28T08:48:24.323Z,28.3
2023-02-28T08:49:41.286Z,28.6
2023-02-28T08:51:06.569Z,28.7
2023-02-28T08:52:15.316Z,28.2
2023-02-28T08:53:32.279Z,28.8
2023-02-28T08:54:49.254Z,28.5
2023-02-28T08:56:06.327Z,28.3
2023-02-28T08:57:23.384Z,29.4
2023-02-28T08:58:40.302Z,30.5
2023-02-28T08:59:57.294Z,30.9
2023-02-28T09:01:14.449Z,30.8
2023-02-28T09:02:31.272Z,31.3
2023-02-28T09:03:48.454Z,31.1
2023-02-28T09:05:05.333Z,31.1
2023-02-28T09:06:22.292Z,30.5
2023-02-28T09:07:39.374Z,30.6
2023-02-28T09:08:56.298Z,30.8
2023-02-28T09:10:13.286Z,30.3
2023-02-28T09:11:30.305Z,29.1
2023-02-28T09:12:47.316Z,27.3
2023-02-28T09:14:04.343Z,26.8
2023-02-28T09:15:21.296Z,26.8
2023-02-28T09:16:38.673Z,26.6
2023-02-28T09:17:55.327Z,27.2
2023-02-28T09:19:12.328Z,26.7
2023-02-28T09:20:29.344Z,25.9
2023-02-28T09:21:46.320Z,25.3
2023-02-28T09:23:03.345Z,24.5
2023-02-28T09:24:20.366Z,24.5
2023-02-28T09:25:37.316Z,24.4
2023-02-28T09:27:03.463Z,24.3
2023-02-28T09:28:11.329Z,24.2
2023-02-28T09:29:28.342Z,24.1
2023-02-28T09:30:45.447Z,23.5
2023-02-28T09:32:02.372Z,23.2
2023-02-28T09:33:19.339Z,23.1
2023-02-28T09:34:36.427Z,23.2
2023-02-28T09:35:53.356Z,22.9
2023-02-28T09:37:10.353Z,23
2023-02-28T09:38:27.383Z,23.7
2023-02-28T09:39:44.372Z,23.5
2023-02-28T09:41:01.389Z,23.3
2023-02-28T09:42:18.434Z,23.6
2023-02-28T09:43:35.352Z,23.3
2023-02-28T09:44:52.353Z,22.7
2023-02-28T09:46:09.387Z,22.4
2023-02-28T09:47:26.357Z,22.1
2023-02-28T09:48:43.393Z,21.8
2023-02-28T09:50:00.348Z,21.6
2023-02-28T09:51:17.385Z,21.7
2023-02-28T09:52:34.386Z,21.3
2023-02-28T09:53:56.615Z,21.5
2023-02-28T09:55:08.459Z,22.1
2023-02-28T09:56:25.514Z,22.9
2023-02-28T09:57:42.363Z,23.3
2023-02-28T09:58:59.365Z,23
2023-02-28T10:00:17.523Z,22.5
2023-02-28T10:01:33.763Z,22.1
2023-02-28T10:02:50.360Z,22.5
2023-02-28T10:04:07.439Z,22.7
2023-02-28T10:05:24.403Z,22.9
2023-02-28T10:06:41.398Z,23
2023-02-28T10:07:58.402Z,23.4
2023-02-28T10:09:15.458Z,24.1
2023-02-28T10:10:32.406Z,24.9
2023-02-28T10:11:49.422Z,25.8
2023-02-28T10:13:06.467Z,25.9
2023-02-28T10:14:23.565Z,26
2023-02-28T10:15:40.416Z,26
2023-02-28T10:16:57.474Z,25.8
2023-02-28T10:18:14.393Z,26.2
2023-02-28T10:19:31.665Z,26.5
2023-02-28T10:20:48.436Z,27
2023-02-28T10:22:05.487Z,26.6
2023-02-28T10:23:22.436Z,26
2023-02-28T10:24:39.450Z,26.3
2023-02-28T10:25:56.421Z,26.7
2023-02-28T10:27:13.438Z,26.1
2023-02-28T10:28:30.455Z,25.2
2023-02-28T10:29:47.424Z,25
2023-02-28T10:31:04.523Z,24.4
2023-02-28T10:32:21.488Z,24.1
2023-02-28T10:33:38.435Z,24.3
2023-02-28T10:34:55.473Z,24
2023-02-28T10:36:12.520Z,24.4
2023-02-28T10:37:29.427Z,24.2
2023-02-28T10:38:46.456Z,24.8
2023-02-28T10:40:03.498Z,24.4
2023-02-28T10:41:20.492Z,24.1
2023-02-28T10:42:37.444Z,24.2
2023-02-28T10:43:54.433Z,23.7
2023-02-28T10:45:11.455Z,23.7
2023-02-28T10:46:28.881Z,23.1
2023-02-28T10:47:45.561Z,23.4
2023-02-28T10:49:02.465Z,23.6
2023-02-28T10:50:19.493Z,23.4
2023-02-28T10:51:36.453Z,23.5
2023-02-28T10:52:53.506Z,23.5
2023-02-28T10:54:10.471Z,23.6
2023-02-28T10:55:27.475Z,23.1
2023-02-28T10:56:44.464Z,23.6
2023-02-28T10:58:01.499Z,25.2
2023-02-28T10:59:18.478Z,25.4
2023-02-28T11:00:35.497Z,25.7
2023-02-28T11:01:52.533Z,25.7
2023-02-28T11:03:09.498Z,25.5
2023-02-28T11:04:26.570Z,24.7
2023-02-28T11:05:43.477Z,24.1
2023-02-28T11:07:00.490Z,24.4
2023-02-28T11:08:17.514Z,26.2
2023-02-28T11:09:34.524Z,28.3
2023-02-28T11:10:51.508Z,29.2
2023-02-28T11:12:08.509Z,29.7
2023-02-28T11:13:25.478Z,30
2023-02-28T11:14:42.521Z,30.1
2023-02-28T11:15:59.584Z,30.4
2023-02-28T11:17:16.546Z,31
2023-02-28T11:18:33.482Z,32
2023-02-28T11:19:50.492Z,31.9
2023-02-28T11:21:07.487Z,31.7
2023-02-28T11:22:24.547Z,30.9
2023-02-28T11:23:41.542Z,30.5
2023-02-28T11:24:58.514Z,30.1
2023-02-28T11:26:15.529Z,30.4
2023-02-28T11:27:32.554Z,30.2
2023-02-28T11:28:49.533Z,29.8
2023-02-28T11:30:06.514Z,29.7
2023-02-28T11:31:23.641Z,30.1
2023-02-28T11:32:40.619Z,31
2023-02-28T11:33:57.492Z,31.3
2023-02-28T11:35:14.525Z,31.8
2023-02-28T11:36:31.575Z,32.6
2023-02-28T11:37:48.590Z,34.1
2023-02-28T11:39:05.523Z,36.2
2023-02-28T11:40:22.578Z,37.4
2023-02-28T11:41:41.264Z,38
2023-02-28T11:42:56.900Z,37.4
2023-02-28T11:44:13.517Z,36.5
2023-02-28T11:45:30.504Z,35.2
2023-02-28T11:46:47.653Z,33.8
2023-02-28T11:48:04.595Z,32.7
2023-02-28T11:49:21.548Z,31.1
2023-02-28T11:50:38.529Z,29.6
2023-02-28T11:51:55.532Z,29.3
2023-02-28T11:53:12.652Z,29.3
2023-02-28T11:54:29.533Z,30
2023-02-28T11:55:46.628Z,30.5
2023-02-28T11:57:03.558Z,30.1
2023-02-28T11:58:20.538Z,29.3
2023-02-28T11:59:37.573Z,28.7
2023-02-28T12:00:54.594Z,28.3
2023-02-28T12:02:11.574Z,28.7
2023-02-28T12:03:28.703Z,29.5
2023-02-28T12:04:45.659Z,30.6
2023-02-28T12:06:02.597Z,31
2023-02-28T12:07:19.803Z,31.3
2023-02-28T12:08:36.634Z,32.4
2023-02-28T12:09:53.567Z,33.1
2023-02-28T12:11:10.573Z,34
2023-02-28T12:12:27.604Z,35
2023-02-28T12:13:44.714Z,35.8
2023-02-28T12:15:01.598Z,36.2
2023-02-28T12:16:18.618Z,36.4
2023-02-28T12:17:35.577Z,36.6
2023-02-28T12:18:52.812Z,36.2
2023-02-28T12:20:09.616Z,35.3
2023-02-28T12:21:26.617Z,34.4
2023-02-28T12:22:43.598Z,33.4
2023-02-28T12:24:00.660Z,32.7
2023-02-28T12:25:17.594Z,32
2023-02-28T12:26:34.648Z,31.4
2023-02-28T12:27:51.616Z,31.3
2023-02-28T12:29:08.617Z,30.5
2023-02-28T12:30:25.624Z,30.1
2023-02-28T12:31:42.671Z,30.2
2023-02-28T12:32:59.588Z,30.1
2023-02-28T12:34:16.602Z,29.7
2023-02-28T12:35:33.744Z,29.1
2023-02-28T12:36:50.585Z,28.4
2023-02-28T12:38:07.636Z,28.7
2023-02-28T12:39:24.620Z,29.2
2023-02-28T12:40:41.625Z,29.6
2023-02-28T12:41:58.634Z,29.9
2023-02-28T12:43:15.655Z,29.9
2023-02-28T12:44:32.638Z,30.7
2023-02-28T12:45:49.859Z,31.8
2023-02-28T12:47:06.656Z,32.8
2023-02-28T12:48:23.625Z,33.6
2023-02-28T12:49:40.624Z,34.4
2023-02-28T12:50:57.660Z,34.8
2023-02-28T12:52:14.662Z,34.6
2023-02-28T12:53:31.634Z,34.8
2023-02-28T12:54:48.626Z,34.5
2023-02-28T12:56:05.638Z,35
2023-02-28T12:57:22.653Z,33.9
2023-02-28T12:58:39.688Z,34
2023-02-28T12:59:56.675Z,34.4
2023-02-28T13:01:13.718Z,34.1
2023-02-28T13:02:30.689Z,33.7
2023-02-28T13:03:47.655Z,33.1
2023-02-28T13:05:04.633Z,32.9
2023-02-28T13:06:21.632Z,32.3
2023-02-28T13:07:38.676Z,32.5
2023-02-28T13:08:55.663Z,32.5
2023-02-28T13:10:12.657Z,32.6
2023-02-28T13:11:29.643Z,32.6
2023-02-28T13:12:46.688Z,32.3
2023-02-28T13:14:03.713Z,33
2023-02-28T13:15:20.657Z,33.9
2023-02-28T13:16:37.680Z,34.1
2023-02-28T13:17:54.670Z,33.6
2023-02-28T13:19:11.681Z,33.4
2023-02-28T13:20:28.654Z,34.2
2023-02-28T13:21:45.756Z,35
2023-02-28T13:23:02.684Z,35.5
2023-02-28T13:24:19.695Z,35.1
2023-02-28T13:25:36.691Z,34.9
2023-02-28T13:26:53.754Z,34.6
2023-02-28T13:28:10.704Z,34.2
2023-02-28T13:29:27.738Z,34.3
2023-02-28T13:30:44.842Z,33.7
2023-02-28T13:32:01.759Z,33.7
2023-02-28T13:33:18.757Z,33.8
2023-02-28T13:34:36.059Z,33.2
2023-02-28T13:35:52.731Z,33.3
2023-02-28T13:37:09.749Z,33.4
2023-02-28T13:38:26.694Z,33.4
2023-02-28T13:39:43.777Z,33.1
2023-02-28T13:41:00.738Z,32.8
2023-02-28T13:42:17.715Z,32.4
2023-02-28T13:43:36.367Z,31.8
2023-02-28T13:44:51.717Z,31.6
2023-02-28T13:46:08.704Z,31.4
2023-02-28T13:47:25.978Z,31.1
2023-02-28T13:48:42.700Z,30.8
2023-02-28T13:49:59.747Z,30.6
2023-02-28T13:51:16.717Z,31.2
2023-02-28T13:52:33.713Z,32.8
2023-02-28T13:53:51.346Z,33.2
2023-02-28T13:55:07.783Z,33.7
2023-02-28T13:56:24.724Z,34.4
2023-02-28T13:57:41.755Z,35
2023-02-28T13:58:58.743Z,35.3
2023-02-28T14:00:15.790Z,35.4
2023-02-28T14:01:33.235Z,35.2
2023-02-28T14:02:50.142Z,34.7
2023-02-28T14:04:06.759Z,34.1
2023-02-28T14:05:23.757Z,33.3
2023-02-28T14:06:40.757Z,33.1
2023-02-28T14:07:57.732Z,32.8
2023-02-28T14:09:14.866Z,32.6
2023-02-28T14:10:31.840Z,33.4
2023-02-28T14:11:48.823Z,34
2023-02-28T14:13:05.784Z,34.3
2023-02-28T14:14:22.739Z,34.4
2023-02-28T14:15:39.843Z,35
2023-02-28T14:16:56.786Z,35.6
2023-02-28T14:18:13.798Z,35.3
2023-02-28T14:19:30.805Z,34.4
2023-02-28T14:20:47.746Z,34
2023-02-28T14:22:04.784Z,33.4
2023-02-28T14:23:21.742Z,32.9
2023-02-28T14:24:38.781Z,32.5
2023-02-28T14:25:55.808Z,31.6
2023-02-28T14:27:12.946Z,32
2023-02-28T14:28:30.072Z,32.1
2023-02-28T14:29:47.138Z,32.4
2023-02-28T14:31:03.944Z,31.9
2023-02-28T14:32:20.828Z,31.8
2023-02-28T14:33:37.835Z,31.3
2023-02-28T14:34:54.809Z,30.9
2023-02-28T14:36:11.838Z,30.5
2023-02-28T14:37:28.791Z,30.1
2023-02-28T14:38:45.854Z,29.8
2023-02-28T14:40:02.785Z,29.2
2023-02-28T14:41:19.864Z,29.2
2023-02-28T14:42:36.804Z,30.3
2023-02-28T14:43:53.856Z,31.1
2023-02-28T14:45:10.775Z,32.2
2023-02-28T14:46:28.487Z,33.2
2023-02-28T14:47:44.827Z,33.9
2023-02-28T14:49:01.822Z,34.7
2023-02-28T14:50:18.826Z,34.6
2023-02-28T14:51:35.827Z,34.2
2023-02-28T14:52:52.859Z,33.6
2023-02-28T14:54:09.811Z,33.2
2023-02-28T14:55:26.826Z,32.6
2023-02-28T14:56:43.815Z,32.3
2023-02-28T14:58:00.840Z,31.9
2023-02-28T14:59:17.807Z,31.6
2023-02-28T15:00:34.840Z,31.5
2023-02-28T15:01:51.924Z,31.5
2023-02-28T15:03:08.856Z,31.4
2023-02-28T15:04:25.896Z,31.6
2023-02-28T15:05:42.813Z,32.1
2023-02-28T15:06:59.867Z,32.3
2023-02-28T15:08:16.853Z,33.3
2023-02-28T15:09:33.846Z,34.7
2023-02-28T15:10:50.832Z,36.2
2023-02-28T15:12:07.897Z,37.3
2023-02-28T15:13:24.838Z,37.6
2023-02-28T15:14:41.830Z,37.5
2023-02-28T15:16:02.214Z,37.4
2023-02-28T15:17:15.887Z,37
2023-02-28T15:18:32.891Z,36.2
2023-02-28T15:19:49.884Z,35.7
2023-02-28T15:21:06.866Z,35.3
2023-02-28T15:22:23.843Z,34.7
2023-02-28T15:23:40.906Z,34.1
2023-02-28T15:24:57.861Z,33.9
2023-02-28T15:26:14.953Z,34.1
2023-02-28T15:27:33.411Z,34
2023-02-28T15:28:49.884Z,33.7
2023-02-28T15:30:06.909Z,33.7
2023-02-28T15:31:23.986Z,33.4
2023-02-28T15:32:41.154Z,33.4
2023-02-28T15:33:58.543Z,32.9
2023-02-28T15:35:15.856Z,32.9
2023-02-28T15:36:32.979Z,33
2023-02-28T15:37:49.914Z,33
2023-02-28T15:39:15.815Z,32.9
2023-02-28T15:40:23.903Z,33
2023-02-28T15:41:41.404Z,32.9
2023-02-28T15:42:58.124Z,32.8
2023-02-28T15:44:14.901Z,32.8
2023-02-28T15:45:31.918Z,32.9
2023-02-28T15:46:48.863Z,33
2023-02-28T15:48:14.059Z,33.4
2023-02-28T15:49:22.890Z,34.1
2023-02-28T15:50:39.889Z,34.8
2023-02-28T15:51:56.875Z,35.3
2023-02-28T15:53:13.935Z,36
2023-02-28T15:54:30.969Z,37
2023-02-28T15:55:48.100Z,37.9
2023-02-28T15:57:04.897Z,38.6
2023-02-28T15:58:21.947Z,39.1
2023-02-28T15:59:38.886Z,39.6
2023-02-28T16:00:56.165Z,40.1
2023-02-28T16:02:13.118Z,40.4
2023-02-28T16:03:29.918Z,40.5
2023-02-28T16:04:46.904Z,40.8
2023-02-28T16:06:03.962Z,40.9
2023-02-28T16:07:21.097Z,41.3
2023-02-28T16:08:37.950Z,41.4
2023-02-28T16:09:54.927Z,41.5
2023-02-28T16:11:12.044Z,41.5
2023-02-28T16:12:28.942Z,41.6
2023-02-28T16:13:46.147Z,41.9
2023-02-28T16:15:03.009Z,42.1
2023-02-28T16:16:20.236Z,42.1
2023-02-28T16:17:36.940Z,42.1
2023-02-28T16:18:53.957Z,42.1
2023-02-28T16:20:10.947Z,42.8
2023-02-28T16:21:28.647Z,43.6
2023-02-28T16:22:44.986Z,44.3
2023-02-28T16:24:01.940Z,44.8
2023-02-28T16:25:18.966Z,45.4
2023-02-28T16:26:35.962Z,46
2023-02-28T16:27:52.955Z,46.3
2023-02-28T16:29:10.063Z,46.7
2023-02-28T16:30:27.072Z,47.1
2023-02-28T16:31:43.937Z,47.4
2023-02-28T16:33:00.985Z,47.6
2023-02-28T16:34:18.088Z,47.5
2023-02-28T16:35:34.942Z,47.3
2023-02-28T16:36:51.939Z,47.2
2023-02-28T16:38:08.934Z,46.9
2023-02-28T16:39:25.982Z,46.7
2023-02-28T16:40:42.979Z,46.4
2023-02-28T16:41:59.991Z,46.2
2023-02-28T16:43:16.998Z,46.1
2023-02-28T16:44:33.998Z,46
2023-02-28T16:45:51.138Z,46.1
2023-02-28T16:47:07.958Z,46.1
2023-02-28T16:48:24.996Z,46.1
2023-02-28T16:49:42.015Z,46
2023-02-28T16:50:58.965Z,46.1
2023-02-28T16:52:15.984Z,46.1
2023-02-28T16:53:32.964Z,46.2
2023-02-28T16:54:50.002Z,46.1
2023-02-28T16:56:07.016Z,46.3
2023-02-28T16:57:23.976Z,46.5
2023-02-28T16:58:40.965Z,46.4
2023-02-28T16:59:58.053Z,46.4
2023-02-28T17:01:15.206Z,46.6
2023-02-28T17:02:32.220Z,46.6
2023-02-28T17:03:49.032Z,46.8
2023-02-28T17:05:06.066Z,47
2023-02-28T17:06:23.075Z,47.1
2023-02-28T17:07:40.027Z,47.2
2023-02-28T17:08:57.114Z,47.1
2023-02-28T17:10:14.003Z,47.1
2023-02-28T17:11:31.304Z,47.2
2023-02-28T17:12:48.034Z,47.2